Time;durP1;ratioP1;P1;durP2;ratioP2;P2;SDS_P1;SDS_P2;PMS_P1;PMS_P2;Temp;Humidity;BMP_temperature;BMP_pressure;BME280_temperature;BME280_humidity;BME280_pressure;Samples;Min_cycle;Max_cycle;Signal;HPM_P1;HPM_P2
2022/03/26 00:00:23;;;;;;;0.20;0.20;;;;;;;9.44;69.73;101146.09;5093539;28;20035;-74
2022/03/26 00:06:20;;;;;;;0.20;0.20;;;;;;;9.44;70.07;101155.25;5053304;28;20183;-74
2022/03/26 00:08:48;;;;;;;0.20;0.20;;;;;;;9.41;69.84;101160.63;5035419;28;20025;-74
2022/03/26 00:11:13;;;;;;;0.20;0.20;;;;;;;9.38;69.71;101164.09;5079692;28;20075;-74
2022/03/26 00:13:41;;;;;;;0.20;0.20;;;;;;;9.34;70.11;101152.81;5093964;28;20161;-74
2022/03/26 00:16:06;;;;;;;0.20;0.20;;;;;;;9.33;70.51;101155.94;5093693;28;20059;-74
2022/03/26 00:18:35;;;;;;;0.20;0.20;;;;;;;9.36;70.06;101156.06;5093786;28;20489;-74
2022/03/26 00:21:05;;;;;;;0.20;0.20;;;;;;;9.40;70.02;101148.72;5094564;28;20028;-74
2022/03/26 00:23:31;;;;;;;0.20;0.20;;;;;;;9.41;69.91;101147.56;5093404;28;20406;-74
2022/03/26 00:26:00;;;;;;;0.20;0.20;;;;;;;9.42;69.35;101143.63;5093087;28;20028;-73
2022/03/26 00:28:28;;;;;;;0.20;0.20;;;;;;;9.42;69.58;101145.59;5095165;28;20432;-75
2022/03/26 00:31:00;;;;;;;0.20;0.20;;;;;;;9.42;70.09;101135.28;5095012;28;20045;-73
2022/03/26 00:33:29;;;;;;;0.20;0.20;;;;;;;9.52;69.69;101144.41;5097007;28;20063;-74
2022/03/26 00:35:57;;;;;;;0.20;0.20;;;;;;;9.49;69.35;101139.53;5096380;28;20085;-74
2022/03/26 00:38:23;;;;;;;0.20;0.20;;;;;;;9.55;69.22;101130.69;5095385;28;20063;-74
2022/03/26 00:40:52;;;;;;;0.20;0.20;;;;;;;9.50;69.42;101136.44;5096670;28;20024;-74
2022/03/26 00:43:20;;;;;;;0.20;0.20;;;;;;;9.54;69.79;101133.81;5096137;28;20024;-74
2022/03/26 00:45:49;;;;;;;0.20;0.20;;;;;;;9.58;68.73;101134.75;5093812;28;20032;-74
2022/03/26 00:48:14;;;;;;;0.20;0.20;;;;;;;9.51;68.55;101137.25;5092779;28;20082;-74
2022/03/26 00:50:40;;;;;;;0.20;0.20;;;;;;;9.49;68.91;101131.22;5092596;28;20040;-74
2022/03/26 00:53:05;;;;;;;0.20;0.20;;;;;;;9.57;69.25;101133.13;5092807;28;20031;-73
2022/03/26 00:55:31;;;;;;;0.20;0.20;;;;;;;9.51;69.14;101126.94;5096597;28;20121;-73
2022/03/26 00:58:00;;;;;;;0.20;0.20;;;;;;;9.58;69.14;101134.75;5096595;28;20027;-74
2022/03/26 01:00:28;;;;;;;0.20;0.20;;;;;;;9.55;69.00;101127.91;5097175;28;20028;-73
2022/03/26 01:03:25;;;;;;;0.20;0.20;;;;;;;9.53;69.55;101127.41;5096762;28;20474;-74
2022/03/26 01:05:51;;;;;;;0.20;0.20;;;;;;;9.48;69.67;101122.06;5097245;28;20036;-75
2022/03/26 01:08:19;;;;;;;0.20;0.20;;;;;;;9.45;69.58;101119.94;5096622;28;20475;-74
2022/03/26 01:10:46;;;;;;;0.20;0.20;;;;;;;9.42;69.46;101120.59;5096356;28;20035;-73
2022/03/26 01:13:12;;;;;;;0.20;0.20;;;;;;;9.43;68.90;101111.94;5097169;28;20024;-74
2022/03/26 01:15:38;;;;;;;0.20;0.20;;;;;;;9.40;68.77;101107.03;5096554;28;20032;-74
2022/03/26 01:18:04;;;;;;;0.20;0.20;;;;;;;9.38;69.02;101117.69;5096302;28;20060;-74
2022/03/26 01:20:45;;;;;;;0.20;0.20;;;;;;;9.36;69.28;101122.72;5096870;28;20127;-74
2022/03/26 01:23:13;;;;;;;0.20;0.20;;;;;;;9.29;68.88;101108.56;5096622;28;20052;-74
2022/03/26 01:25:45;;;;;;;0.20;0.20;;;;;;;9.42;69.11;101112.25;5096386;28;20032;-74
2022/03/26 01:28:13;;;;;;;0.20;0.20;;;;;;;9.34;69.35;101108.38;5096156;28;20027;-75
2022/03/26 01:30:41;;;;;;;0.20;0.20;;;;;;;9.39;69.19;101110.16;5096456;28;20024;-74
2022/03/26 01:33:10;;;;;;;0.20;0.20;;;;;;;9.41;69.68;101107.84;5097885;28;20177;-74
2022/03/26 01:35:38;;;;;;;0.20;0.20;;;;;;;9.40;69.80;101101.50;5096680;28;20028;-74
2022/03/26 01:38:07;;;;;;;0.30;0.30;;;;;;;9.37;70.15;101095.78;5096524;28;20028;-74
2022/03/26 01:40:36;;;;;;;0.20;0.20;;;;;;;9.31;70.96;101086.00;5096420;28;20469;-74
2022/03/26 01:43:06;;;;;;;0.20;0.20;;;;;;;9.41;70.36;101092.00;5096173;28;20548;-74
2022/03/26 01:45:35;;;;;;;0.20;0.20;;;;;;;9.35;70.25;101086.97;5096889;28;20028;-74
2022/03/26 01:48:04;;;;;;;0.20;0.20;;;;;;;9.32;70.66;101088.47;5096026;28;20028;-74
2022/03/26 01:50:33;;;;;;;0.20;0.20;;;;;;;9.37;70.40;101082.69;5095648;28;20066;-74
2022/03/26 01:53:04;;;;;;;0.20;0.20;;;;;;;9.30;70.76;101087.97;5095855;28;20032;-74
2022/03/26 01:55:32;;;;;;;0.20;0.20;;;;;;;9.25;70.55;101077.03;5096256;28;20024;-75
2022/03/26 01:58:01;;;;;;;0.20;0.20;;;;;;;9.25;70.76;101081.78;5078857;28;20032;-75
2022/03/26 02:00:29;;;;;;;0.20;0.20;;;;;;;9.20;70.91;101077.22;5095548;28;20062;-74
2022/03/26 02:02:54;;;;;;;0.20;0.20;;;;;;;9.20;70.07;101071.66;5095328;28;20478;-74
2022/03/26 02:05:28;;;;;;;0.20;0.20;;;;;;;9.12;69.85;101058.63;5095078;28;20205;-74
2022/03/26 02:07:54;;;;;;;;;;;;;;;9.26;68.84;101062.00;5096123;28;20470;-74
2022/03/26 02:10:23;;;;;;;0.20;0.20;;;;;;;9.24;69.08;101063.50;5095333;28;19960;-74
2022/03/26 02:12:48;;;;;;;0.20;0.20;;;;;;;9.23;69.84;101062.69;5095324;28;20035;-74
2022/03/26 02:15:19;;;;;;;0.20;0.20;;;;;;;9.24;70.45;101058.75;5095819;28;20035;-74
2022/03/26 02:17:49;;;;;;;0.20;0.20;;;;;;;9.15;70.83;101060.72;5095225;28;20516;-74
2022/03/26 02:20:15;;;;;;;0.20;0.20;;;;;;;9.11;71.46;101068.13;5095036;28;20028;-73
2022/03/26 02:22:43;;;;;;;0.20;0.20;;;;;;;9.08;72.26;101066.00;5095145;28;20067;-74
2022/03/26 02:25:10;;;;;;;0.20;0.20;;;;;;;9.05;72.27;101061.09;5094862;28;20105;-74
2022/03/26 02:27:39;;;;;;;0.20;0.20;;;;;;;9.08;72.86;101066.00;5095163;28;20063;-74
2022/03/26 02:30:06;;;;;;;0.20;0.20;;;;;;;9.01;72.88;101065.69;5095681;28;20032;-74
2022/03/26 02:32:34;;;;;;;0.20;0.20;;;;;;;9.00;72.99;101064.03;5096510;28;20398;-75
2022/03/26 02:35:02;;;;;;;0.20;0.20;;;;;;;9.00;72.71;101061.25;5094873;28;20055;-74
2022/03/26 02:37:50;;;;;;;0.20;0.20;;;;;;;9.15;73.11;101067.09;5096038;28;20467;-74
2022/03/26 02:40:20;;;;;;;0.20;0.20;;;;;;;9.14;72.98;101070.22;5095427;28;20028;-74
2022/03/26 02:42:46;;;;;;;0.20;0.20;;;;;;;9.22;73.58;101071.34;5095545;28;20363;-74
2022/03/26 02:45:20;;;;;;;0.20;0.20;;;;;;;9.04;73.30;101070.56;5095529;28;20039;-74
2022/03/26 02:47:50;;;;;;;0.20;0.20;;;;;;;9.04;73.80;101073.34;5095334;28;20028;-74
2022/03/26 02:50:16;;;;;;;0.20;0.20;;;;;;;9.04;73.85;101065.03;5095104;28;20370;-74
2022/03/26 02:52:50;;;;;;;0.20;0.20;;;;;;;8.98;73.91;101071.91;5094644;28;20081;-74
2022/03/26 02:55:16;;;;;;;0.20;0.20;;;;;;;8.95;73.33;101061.44;5095503;28;20058;-74
2022/03/26 02:57:46;;;;;;;0.20;0.20;;;;;;;8.91;73.01;101067.66;5094704;28;20028;-74
2022/03/26 03:00:21;;;;;;;0.20;0.20;;;;;;;8.96;71.97;101066.69;5094568;28;20085;-74
2022/03/26 03:02:52;;;;;;;0.20;0.20;;;;;;;8.88;70.95;101070.28;5094977;28;20032;-74
2022/03/26 03:05:30;;;;;;;0.20;0.20;;;;;;;8.64;70.62;101043.91;5096632;28;20123;-74
2022/03/26 03:07:59;;;;;;;0.20;0.20;;;;;;;8.77;70.59;101075.38;5097932;28;20036;-74
2022/03/26 03:10:29;;;;;;;0.20;0.20;;;;;;;8.78;70.71;101076.16;5094832;28;20024;-74
2022/03/26 03:13:07;;;;;;;0.20;0.20;;;;;;;8.65;70.91;101058.59;5094964;28;20032;-74
2022/03/26 03:15:33;;;;;;;0.20;0.20;;;;;;;8.69;70.75;101065.09;5096008;28;20123;-74
2022/03/26 03:18:02;;;;;;;0.20;0.20;;;;;;;8.68;70.92;101071.78;5094801;28;20423;-74
2022/03/26 03:20:29;;;;;;;0.20;0.20;;;;;;;8.64;71.23;101068.88;5095698;28;20066;-74
2022/03/26 03:22:56;;;;;;;0.20;0.20;;;;;;;8.66;71.43;101072.13;5099148;28;20024;-74
2022/03/26 03:25:25;;;;;;;0.20;0.20;;;;;;;8.73;71.21;101071.59;5101161;28;20050;-75
2022/03/26 03:27:51;;;;;;;0.20;0.20;;;;;;;8.63;71.72;101083.06;5118652;28;20047;-74
2022/03/26 03:30:17;;;;;;;0.20;0.20;;;;;;;8.63;71.93;101080.28;5097522;28;20049;-74
2022/03/26 03:32:46;;;;;;;0.20;0.20;;;;;;;8.61;72.39;101079.78;5097333;28;20030;-74
2022/03/26 03:35:53;;;;;;;0.20;0.20;;;;;;;8.59;72.19;101079.31;5097175;28;20028;-74
2022/03/26 03:38:24;;;;;;;0.20;0.20;;;;;;;8.63;72.29;101080.28;5096956;28;20118;-74
2022/03/26 03:40:55;;;;;;;0.20;0.20;;;;;;;8.60;71.92;101080.94;5097242;28;20016;-74
2022/03/26 03:43:24;;;;;;;0.20;0.20;;;;;;;8.63;71.07;101092.22;5097073;28;20035;-74
2022/03/26 03:45:50;;;;;;;0.20;0.20;;;;;;;8.59;71.62;101080.13;5096999;28;20032;-74
2022/03/26 03:48:21;;;;;;;0.20;0.20;;;;;;;8.54;71.35;101079.47;5096880;28;20032;-74
2022/03/26 03:51:07;;;;;;;0.20;0.20;;;;;;;8.59;71.47;101084.88;5096869;28;20032;-74
2022/03/26 03:53:33;;;;;;;0.20;0.20;;;;;;;8.51;71.64;101071.81;5096830;28;20063;-74
2022/03/26 03:55:59;;;;;;;0.20;0.20;;;;;;;8.56;71.16;101086.31;5096908;28;20043;-74
2022/03/26 03:58:27;;;;;;;0.20;0.20;;;;;;;8.60;71.00;101097.59;5096741;28;20023;-74
2022/03/26 04:00:56;;;;;;;0.20;0.20;;;;;;;8.45;71.37;101092.53;5096825;28;20061;-74
2022/03/26 04:03:23;;;;;;;0.20;0.20;;;;;;;8.42;71.63;101082.91;5097478;28;20395;-74
2022/03/26 04:05:48;;;;;;;0.20;0.20;;;;;;;8.50;71.67;101089.59;5079873;28;20092;-75
2022/03/26 04:08:16;;;;;;;0.30;0.30;;;;;;;8.45;71.52;101086.97;5096584;28;20031;-74
2022/03/26 04:10:42;;;;;;;0.20;0.20;;;;;;;8.44;72.25;101079.81;5115065;28;20111;-73
2022/03/26 04:13:07;;;;;;;0.20;0.20;;;;;;;8.35;72.89;101094.44;5096307;28;20458;-74
2022/03/26 04:15:36;;;;;;;0.20;0.20;;;;;;;8.30;73.17;101091.84;5096341;28;20035;-74
2022/03/26 04:18:06;;;;;;;0.20;0.20;;;;;;;8.41;72.57;101097.91;5096441;28;20473;-74
2022/03/26 04:20:57;;;;;;;0.20;0.20;;;;;;;8.47;72.58;101095.78;5096382;28;20034;-74
2022/03/26 04:23:24;;;;;;;0.20;0.20;;;;;;;8.40;73.12;101101.81;5092232;28;20101;-74
2022/03/26 04:25:55;;;;;;;0.20;0.20;;;;;;;8.32;73.42;101108.97;5093754;28;20474;-74
2022/03/26 04:28:26;;;;;;;0.20;0.20;;;;;;;8.18;73.82;101104.72;5093686;28;20028;-74
2022/03/26 04:30:55;;;;;;;0.20;0.20;;;;;;;8.12;74.41;101102.09;5093351;28;20067;-74
2022/03/26 04:33:23;;;;;;;0.20;0.20;;;;;;;8.14;74.84;101107.31;5093495;28;20036;-74
2022/03/26 04:35:49;;;;;;;0.20;0.20;;;;;;;8.14;74.83;101110.09;5092740;28;20028;-74
2022/03/26 04:38:14;;;;;;;0.20;0.20;;;;;;;8.09;74.93;101107.47;5092789;28;20081;-75
2022/03/26 04:40:44;;;;;;;0.20;0.20;;;;;;;8.06;75.56;101110.91;5093059;28;20398;-74
2022/03/26 04:43:18;;;;;;;0.20;0.20;;;;;;;8.08;75.72;101111.38;5093308;28;20429;-75
2022/03/26 04:46:11;;;;;;;;;;;;;;;8.03;75.67;101104.03;5092226;28;20047;-75
2022/03/26 04:48:37;;;;;;;0.20;0.20;;;;;;;8.13;75.23;101111.22;5093299;28;20361;-74
2022/03/26 04:51:06;;;;;;;0.20;0.20;;;;;;;8.11;75.29;101107.97;5092823;28;20028;-73
2022/03/26 04:54:03;;;;;;;0.20;0.20;;;;;;;8.05;75.63;101120.34;5093242;28;20229;-74
2022/03/26 04:56:32;;;;;;;0.20;0.20;;;;;;;8.08;75.43;101123.28;5092529;28;20053;-74
2022/03/26 04:58:58;;;;;;;0.20;0.20;;;;;;;8.18;75.22;101124.13;5092679;28;20020;-74
2022/03/26 05:08:34;;;;;;;0.20;0.20;;;;;;;8.18;75.89;101121.34;5093228;28;20043;-75
2022/03/26 05:11:02;;;;;;;0.28;0.28;;;;;;;8.37;76.43;101133.81;5092661;28;20024;-75
2022/03/26 05:13:28;;;;;;;0.20;0.20;;;;;;;8.53;75.38;101133.34;5092599;28;20039;-75
2022/03/26 05:19:40;;;;;;;0.20;0.20;;;;;;;9.16;74.45;101117.88;5093696;28;20371;-75
2022/03/26 05:22:06;;;;;;;0.20;0.20;;;;;;;9.44;73.28;101127.47;5092576;28;20127;-75
2022/03/26 05:24:33;;;;;;;0.20;0.20;;;;;;;9.69;72.29;101128.50;5092455;28;20506;-74
2022/03/26 05:30:25;;;;;;;0.20;0.20;;;;;;;10.32;68.41;101109.16;5094162;28;20550;-75
2022/03/26 05:32:51;;;;;;;0.20;0.20;;;;;;;10.65;66.96;101117.59;5094441;28;20068;-74
2022/03/26 05:35:18;;;;;;;0.20;0.20;;;;;;;10.85;65.61;101118.72;5095831;28;20032;-74
2022/03/26 05:41:54;;;;;;;0.20;0.20;;;;;;;11.63;63.92;101129.00;5094386;28;20040;-75
2022/03/26 05:44:23;;;;;;;0.20;0.20;;;;;;;12.04;61.73;101121.63;5095831;28;20587;-74
2022/03/26 05:46:51;;;;;;;0.20;0.20;;;;;;;12.45;60.21;101131.66;5095810;28;20483;-75
2022/03/26 05:53:35;;;;;;;0.20;0.20;;;;;;;13.48;56.73;101122.63;5095938;28;20123;-75
2022/03/26 05:56:00;;;;;;;0.20;0.20;;;;;;;13.98;54.87;101123.84;5095625;28;20032;-75
2022/03/26 05:58:26;;;;;;;0.20;0.20;;;;;;;14.43;54.19;101128.06;5095473;28;20032;-75
2022/03/26 06:01:37;;;;;;;0.20;0.20;;;;;;;14.86;52.33;101126.19;5095537;28;20024;-73
2022/03/26 06:04:03;;;;;;;0.20;0.20;;;;;;;15.27;51.06;101127.41;5096361;28;20035;-74
2022/03/26 06:06:28;;;;;;;0.20;0.20;;;;;;;15.68;50.29;101130.59;5095753;28;20059;-75
2022/03/26 06:08:54;;;;;;;0.20;0.20;;;;;;;15.94;49.31;101133.44;5095722;28;20039;-75
2022/03/26 06:11:20;;;;;;;0.20;0.20;;;;;;;16.23;48.26;101111.41;5094970;28;20391;-74
2022/03/26 06:13:46;;;;;;;0.20;0.20;;;;;;;16.67;47.34;101134.09;5095174;28;20028;-74
2022/03/26 06:16:11;;;;;;;0.20;0.20;;;;;;;16.80;45.46;101142.31;5094722;28;20102;-74
2022/03/26 06:18:38;;;;;;;0.20;0.20;;;;;;;17.09;45.86;101146.25;5095379;28;20043;-74
2022/03/26 06:21:19;;;;;;;0.20;0.20;;;;;;;17.39;44.76;101146.19;5094648;28;20028;-74
2022/03/26 06:23:45;;;;;;;0.20;0.20;;;;;;;16.74;44.28;101147.47;5094511;28;20154;-74
2022/03/26 06:26:10;;;;;;;0.20;0.20;;;;;;;17.58;44.34;101146.00;5094760;28;20115;-74
2022/03/26 06:28:37;;;;;;;0.10;0.10;;;;;;;17.24;44.03;101148.84;5094771;28;20045;-73
2022/03/26 06:31:03;;;;;;;0.20;0.20;;;;;;;17.57;42.92;101130.28;5094818;28;20030;-74
2022/03/26 06:33:30;;;;;;;0.20;0.20;;;;;;;17.40;43.37;101145.00;5094139;28;20056;-74
2022/03/26 06:35:56;;;;;;;0.20;0.20;;;;;;;17.10;43.44;101142.25;5094483;28;20085;-74
2022/03/26 06:38:22;;;;;;;0.17;0.17;;;;;;;16.79;43.26;101149.13;5094815;28;20401;-74
2022/03/26 06:40:48;;;;;;;0.20;0.20;;;;;;;16.18;46.66;101137.81;5094499;28;20463;-74
2022/03/26 06:43:14;;;;;;;0.20;0.20;;;;;;;16.23;47.68;101148.72;5093824;28;20031;-72
2022/03/26 06:45:40;;;;;;;0.20;0.20;;;;;;;15.94;47.44;101146.66;5094199;28;20020;-74
2022/03/26 06:48:07;;;;;;;0.13;0.13;;;;;;;15.53;48.59;101145.50;5094148;28;20028;-74
2022/03/26 06:50:33;;;;;;;0.20;0.20;;;;;;;15.78;48.98;101146.00;5094052;28;20062;-74
2022/03/26 06:52:59;;;;;;;0.20;0.20;;;;;;;16.09;48.03;101154.13;5093560;28;20043;-74
2022/03/26 06:55:28;;;;;;;0.20;0.20;;;;;;;16.26;48.33;101157.59;5094201;28;20123;-74
2022/03/26 06:57:56;;;;;;;0.20;0.20;;;;;;;16.59;48.41;101149.22;5094234;28;20047;-75
2022/03/26 07:00:24;;;;;;;0.20;0.20;;;;;;;16.89;48.38;101166.13;5094254;28;20024;-74
2022/03/26 07:02:56;;;;;;;0.20;0.20;;;;;;;17.17;48.56;101171.28;5093861;28;20524;-76
2022/03/26 07:05:22;;;;;;;0.20;0.20;;;;;;;17.24;47.32;101170.53;5093820;28;20070;-74
2022/03/26 07:07:50;;;;;;;0.20;0.20;;;;;;;17.11;49.43;101167.19;5093786;28;20032;-75
2022/03/26 07:10:18;;;;;;;0.20;0.20;;;;;;;17.71;47.08;101172.66;5093915;28;20024;-75
2022/03/26 07:12:47;;;;;;;0.20;0.20;;;;;;;17.79;46.76;101168.75;5095190;28;20531;-74
2022/03/26 07:15:18;;;;;;;0.20;0.20;;;;;;;17.96;47.12;101172.09;5093776;28;20130;-75
2022/03/26 07:17:44;;;;;;;0.20;0.20;;;;;;;18.43;46.85;101150.69;5093558;28;20036;-72
2022/03/26 07:20:16;;;;;;;0.20;0.20;;;;;;;18.92;45.12;101163.47;5093211;28;20032;-74
2022/03/26 07:22:50;;;;;;;0.20;0.20;;;;;;;18.90;44.61;101172.31;5095013;28;20036;-72
2022/03/26 07:25:23;;;;;;;0.20;0.20;;;;;;;18.99;44.42;101171.97;5096733;28;20127;-73
2022/03/26 07:27:52;;;;;;;0.20;0.20;;;;;;;18.89;44.69;101169.91;5096763;28;20031;-72
2022/03/26 07:30:21;;;;;;;0.20;0.20;;;;;;;18.48;45.06;101170.88;5096504;28;20026;-73
2022/03/26 07:32:46;;;;;;;0.20;0.20;;;;;;;19.07;44.31;101173.63;5114720;28;20033;-73
2022/03/26 07:35:12;;;;;;;0.10;0.10;;;;;;;19.24;43.48;101170.03;5096691;28;20028;-73
2022/03/26 07:37:40;;;;;;;0.20;0.20;;;;;;;19.42;42.74;101167.25;5096603;28;20050;-73
2022/03/26 07:40:07;;;;;;;0.20;0.20;;;;;;;20.49;40.83;101169.34;5096572;28;20035;-74
2022/03/26 07:42:41;;;;;;;0.20;0.20;;;;;;;20.27;41.77;101158.03;5114463;28;20023;-74
2022/03/26 07:45:10;;;;;;;0.20;0.20;;;;;;;19.92;42.38;101160.88;5096331;28;20027;-74
2022/03/26 07:47:38;;;;;;;0.20;0.20;;;;;;;19.10;44.32;101150.25;5097050;28;20070;-73
2022/03/26 07:50:08;;;;;;;0.20;0.20;;;;;;;19.26;43.47;101139.41;5096863;28;20466;-74
2022/03/26 07:52:35;;;;;;;0.20;0.20;;;;;;;19.20;44.20;101166.41;5096917;28;20024;-74
2022/03/26 07:55:03;;;;;;;0.20;0.20;;;;;;;19.07;44.37;101154.69;5096249;28;20035;-74
2022/03/26 07:57:32;;;;;;;0.20;0.20;;;;;;;19.82;41.79;101163.31;5096043;28;20070;-73
2022/03/26 08:00:00;;;;;;;0.20;0.20;;;;;;;19.75;42.38;101160.47;5096312;28;20030;-72
2022/03/26 08:02:31;;;;;;;0.20;0.20;;;;;;;20.46;40.15;101147.53;5096340;28;20050;-72
2022/03/26 08:04:57;;;;;;;0.20;0.20;;;;;;;20.74;39.83;101150.28;5094954;28;20027;-73
2022/03/26 08:07:23;;;;;;;0.20;0.20;;;;;;;19.97;41.29;101157.66;5096238;28;20042;-72
2022/03/26 08:09:48;;;;;;;0.20;0.20;;;;;;;20.30;40.19;101162.91;5096097;28;20386;-73
2022/03/26 08:12:19;;;;;;;0.20;0.20;;;;;;;20.01;41.28;101156.44;5096648;28;20032;-72
2022/03/26 08:14:48;;;;;;;0.20;0.20;;;;;;;20.06;41.22;101160.91;5095842;28;20072;-72
2022/03/26 08:17:19;;;;;;;0.20;0.20;;;;;;;20.57;40.31;101159.66;5096421;28;20066;-73
2022/03/26 08:19:50;;;;;;;0.20;0.20;;;;;;;20.93;39.91;101160.31;5096033;28;20023;-73
2022/03/26 08:22:18;;;;;;;0.20;0.20;;;;;;;21.22;38.38;101169.50;5096354;28;20031;-73
2022/03/26 08:24:49;;;;;;;0.20;0.20;;;;;;;21.23;37.87;101176.75;5095303;28;20051;-73
2022/03/26 08:27:18;;;;;;;0.20;0.20;;;;;;;21.62;36.55;101170.06;5095711;28;20031;-73
2022/03/26 08:29:48;;;;;;;0.20;0.20;;;;;;;21.53;37.54;101166.91;5095987;28;20032;-73
2022/03/26 08:32:16;;;;;;;0.20;0.20;;;;;;;21.70;35.55;101177.31;5096134;28;20381;-73
2022/03/26 08:34:42;;;;;;;0.10;0.10;;;;;;;22.31;34.39;101169.13;5095702;28;20055;-73
2022/03/26 08:37:08;;;;;;;0.20;0.20;;;;;;;22.75;34.86;101173.16;5096142;28;20055;-73
2022/03/26 08:39:33;;;;;;;0.10;0.10;;;;;;;23.10;33.52;101169.06;5095579;28;20446;-72
2022/03/26 08:41:59;;;;;;;0.17;0.17;;;;;;;22.26;32.80;101171.63;5095541;28;20034;-73
2022/03/26 08:44:27;;;;;;;0.20;0.20;;;;;;;22.54;33.17;101173.38;5095769;28;20035;-73
2022/03/26 08:47:02;;;;;;;0.10;0.10;;;;;;;21.60;34.56;101161.19;5095335;28;20081;-73
2022/03/26 08:49:32;;;;;;;0.20;0.20;;;;;;;22.39;33.60;101169.88;5095597;28;20104;-73
2022/03/26 08:52:00;;;;;;;0.10;0.10;;;;;;;23.03;32.46;101171.22;5095523;28;20111;-73
2022/03/26 08:54:26;;;;;;;0.15;0.15;;;;;;;23.53;31.92;101169.28;5095728;28;20469;-73
2022/03/26 08:56:52;;;;;;;0.15;0.15;;;;;;;23.50;31.89;101173.00;5095272;28;20024;-73
2022/03/26 08:59:18;;;;;;;0.20;0.20;;;;;;;23.12;31.48;101169.47;5095883;28;20035;-73
2022/03/26 09:01:46;;;;;;;0.20;0.20;;;;;;;23.67;30.95;101176.03;5095404;28;20508;-73
2022/03/26 09:04:17;;;;;;;0.20;0.20;;;;;;;22.82;31.72;101177.91;5095223;28;20028;-73
2022/03/26 09:06:45;;;;;;;0.10;0.10;;;;;;;22.90;32.41;101177.44;5095259;28;20035;-72
2022/03/26 09:09:15;;;;;;;0.10;0.10;;;;;;;23.04;32.76;101172.81;5095598;28;20093;-74
2022/03/26 09:11:44;;;;;;;0.10;0.10;;;;;;;23.07;33.58;101178.47;5095734;28;20027;-73
2022/03/26 09:14:11;;;;;;;0.13;0.13;;;;;;;23.18;33.36;101164.13;5094873;28;20031;-73
2022/03/26 09:16:37;;;;;;;0.17;0.17;;;;;;;23.43;33.75;101166.59;5099205;28;20089;-73
2022/03/26 09:19:02;;;;;;;0.20;0.20;;;;;;;23.71;32.59;101171.91;5099328;28;20039;-72
2022/03/26 09:21:34;;;;;;;0.10;0.10;;;;;;;23.25;33.70;101164.81;5098990;28;20031;-72
2022/03/26 09:24:02;;;;;;;0.15;0.15;;;;;;;23.45;33.24;101170.63;5095274;28;20055;-72
2022/03/26 09:26:31;;;;;;;0.10;0.10;;;;;;;23.10;33.76;101159.75;5096192;28;20020;-73
2022/03/26 09:28:57;;;;;;;0.10;0.10;;;;;;;23.26;32.51;101168.47;5095543;28;20039;-73
2022/03/26 09:31:25;;;;;;;0.10;0.10;;;;;;;23.76;31.33;101168.56;5078777;28;20032;-73
2022/03/26 09:33:56;;;;;;;0.10;0.10;;;;;;;23.30;31.13;101163.53;5095413;28;20060;-72
2022/03/26 09:36:25;;;;;;;0.20;0.20;;;;;;;23.31;31.97;101162.31;5095400;28;20027;-73
2022/03/26 09:38:50;;;;;;;0.10;0.10;;;;;;;23.67;31.88;101168.31;5095490;28;20115;-72
2022/03/26 09:41:27;;;;;;;0.17;0.17;;;;;;;23.08;31.91;101128.97;5095951;28;20059;-73
2022/03/26 09:43:54;;;;;;;0.10;0.10;;;;;;;23.82;30.75;101159.56;5096327;28;20425;-73
2022/03/26 09:46:24;;;;;;;0.10;0.10;;;;;;;24.58;28.81;101157.81;5096104;28;20081;-73
2022/03/26 09:48:52;;;;;;;0.15;0.15;;;;;;;24.80;27.35;101158.19;5095225;28;20032;-73
2022/03/26 09:51:23;;;;;;;0.10;0.10;;;;;;;25.61;27.23;101158.44;5095437;28;20039;-72
2022/03/26 09:53:51;;;;;;;0.15;0.15;;;;;;;25.74;26.16;101163.47;5095024;28;20115;-73
2022/03/26 09:56:20;;;;;;;0.13;0.13;;;;;;;25.78;25.86;101156.47;5095647;28;20041;-73
2022/03/26 09:58:54;;;;;;;0.20;0.20;;;;;;;25.59;25.59;101160.16;5078637;28;20036;-73
2022/03/26 10:01:22;;;;;;;0.10;0.10;;;;;;;26.11;25.04;101156.47;5095095;28;20077;-73
2022/03/26 10:04:07;;;;;;;0.10;0.10;;;;;;;25.03;25.09;101145.91;5095048;28;20138;-73
2022/03/26 10:06:35;;;;;;;0.10;0.10;;;;;;;25.41;24.90;101143.50;5095036;28;20074;-73
2022/03/26 10:09:04;;;;;;;0.20;0.20;;;;;;;24.38;26.28;101152.09;5094925;28;20093;-74
2022/03/26 10:11:41;;;;;;;0.10;0.10;;;;;;;25.68;25.17;101156.69;5095077;28;20039;-73
2022/03/26 10:14:09;;;;;;;0.20;0.20;;;;;;;25.45;24.20;101129.13;5095021;28;20024;-74
2022/03/26 10:16:35;;;;;;;0.10;0.10;;;;;;;25.65;24.14;101152.69;5078266;28;20033;-73
2022/03/26 10:19:05;;;;;;;0.10;0.10;;;;;;;24.74;25.50;101145.72;5094733;28;20414;-74
2022/03/26 10:21:37;;;;;;;0.10;0.10;;;;;;;24.98;25.63;101149.28;5094873;28;20491;-74
2022/03/26 10:24:06;;;;;;;0.10;0.10;;;;;;;24.00;26.67;101154.38;5094218;28;20040;-74
2022/03/26 10:26:39;;;;;;;0.10;0.10;;;;;;;23.67;27.11;101147.63;5093604;28;20130;-74
2022/03/26 10:29:09;;;;;;;;;;;;;;;24.19;28.31;101150.00;5094962;28;20465;-74
2022/03/26 10:34:24;;;;;;;0.10;0.10;;;;;;;22.88;31.19;101154.34;5096205;28;20532;-74
2022/03/26 10:37:01;;;;;;;0.17;0.17;;;;;;;22.67;32.22;101154.59;5094384;28;20036;-74
2022/03/26 10:39:30;;;;;;;0.10;0.10;;;;;;;22.42;31.36;101155.66;5094238;28;20122;-74
2022/03/26 10:41:59;;;;;;;0.10;0.10;;;;;;;22.87;30.21;101146.25;5094247;28;20074;-74
2022/03/26 10:44:29;;;;;;;0.10;0.10;;;;;;;23.53;27.97;101148.59;5095741;28;20089;-74
2022/03/26 10:47:00;;;;;;;0.10;0.10;;;;;;;24.20;26.61;101151.59;5094439;28;20475;-74
2022/03/26 10:49:37;;;;;;;0.10;0.10;;;;;;;23.33;27.33;101140.00;5095410;28;20073;-74
2022/03/26 10:52:15;;;;;;;0.10;0.10;;;;;;;24.25;26.29;101142.56;5094467;28;20032;-74
2022/03/26 10:54:41;;;;;;;0.10;0.10;;;;;;;24.22;26.11;101143.44;5094183;28;20095;-73
2022/03/26 10:57:08;;;;;;;0.10;0.10;;;;;;;24.37;26.16;101139.13;5094074;28;20094;-73
2022/03/26 10:59:39;;;;;;;0.10;0.10;;;;;;;24.49;26.22;101127.09;5093871;28;20036;-73
2022/03/26 11:02:04;;;;;;;0.10;0.10;;;;;;;24.45;25.74;101126.38;5094123;28;20028;-74
2022/03/26 11:04:30;;;;;;;0.10;0.10;;;;;;;25.02;25.22;101130.88;5093938;28;20039;-73
2022/03/26 11:06:59;;;;;;;0.10;0.10;;;;;;;24.62;24.58;101121.56;5093704;28;20024;-73
2022/03/26 11:09:28;;;;;;;0.10;0.10;;;;;;;24.37;25.07;101115.56;5093713;28;20067;-73
2022/03/26 11:11:55;;;;;;;0.10;0.10;;;;;;;23.87;24.78;101114.41;5093766;28;20470;-73
2022/03/26 11:14:26;;;;;;;0.10;0.10;;;;;;;24.29;24.34;101120.56;5093683;28;20150;-73
2022/03/26 11:17:18;;;;;;;0.10;0.10;;;;;;;24.56;23.83;101109.91;5093555;28;20035;-73
2022/03/26 11:20:13;;;;;;;0.10;0.10;;;;;;;23.81;24.92;101113.31;5094415;28;20130;-73
2022/03/26 11:22:57;;;;;;;0.20;0.20;;;;;;;23.61;25.40;101103.84;5093595;28;20091;-73
2022/03/26 11:25:30;;;;;;;0.10;0.10;;;;;;;23.64;25.28;101109.50;5092907;28;20048;-73
2022/03/26 11:28:32;;;;;;;0.10;0.10;;;;;;;24.56;23.99;101107.06;5093340;28;20028;-73
2022/03/26 11:31:05;;;;;;;0.20;0.20;;;;;;;24.38;23.38;101106.59;5093116;28;20032;-73
2022/03/26 11:33:39;;;;;;;0.10;0.10;;;;;;;23.87;24.44;101094.50;5093187;28;20115;-73
2022/03/26 11:36:07;;;;;;;0.10;0.10;;;;;;;23.71;25.06;101108.59;5093392;28;20101;-73
2022/03/26 11:38:36;;;;;;;0.10;0.10;;;;;;;23.18;25.40;101098.84;5093368;28;20574;-73
2022/03/26 11:41:07;;;;;;;0.10;0.10;;;;;;;23.61;25.33;101092.50;5094178;28;20074;-72
2022/03/26 11:43:53;;;;;;;0.20;0.20;;;;;;;22.82;26.11;101076.59;5093570;28;20466;-73
2022/03/26 11:52:18;;;;;;;0.10;0.10;;;;;;;22.71;27.74;101081.59;5094529;28;20050;-74
2022/03/26 11:54:45;;;;;;;0.10;0.10;;;;;;;22.37;27.29;101067.41;5093448;28;20051;-74
2022/03/26 11:57:25;;;;;;;0.20;0.20;;;;;;;22.36;27.76;101082.81;5093155;28;20032;-74
2022/03/26 11:59:52;;;;;;;0.20;0.20;;;;;;;21.87;29.30;101074.38;5092931;28;20028;-74
2022/03/26 12:02:27;;;;;;;0.20;0.20;;;;;;;21.45;33.60;101076.34;5094121;28;20028;-74
2022/03/26 12:06:35;;;;;;;0.10;0.10;;;;;;;21.35;36.00;101076.44;5092760;28;20054;-74
2022/03/26 12:07:50;;;;;;;0.10;0.10;;;;;;;21.56;36.49;101078.28;5093738;28;20042;-74
2022/03/26 12:10:19;;;;;;;0.10;0.10;;;;;;;21.31;36.56;101073.66;5092583;28;20035;-74
2022/03/26 12:12:50;;;;;;;0.10;0.10;;;;;;;21.15;36.99;101073.31;5092789;28;20036;-74
2022/03/26 12:15:15;;;;;;;0.20;0.20;;;;;;;21.20;37.35;101075.72;5092363;28;20024;-73